Terminal Aerodrome Forecast
Issued by NWS

Home | Current Version | Previous Version | Graphics & Text | Print | Product List | Glossary On
Versions: 1 2 3 4 5 6 7 8 9 10 11 12 13 14 15 16 17 18
017
FTUS43 KBIS 140532
TAFDIK
TAF
KDIK 140532Z 1406/1506 28012KT P6SM VCSH SCT025 OVC050
     FM140800 30012KT 5SM -SN OVC025
     FM141200 32017G26KT 6SM BLSN VCSH OVC015
     FM150000 30011G19KT P6SM BKN020
     FM150200 29009KT P6SM BKN045=

USA.gov is the U.S. government's official web portal to all federal, state and local government web resources and services.